Time;durP1;ratioP1;P1;durP2;ratioP2;P2;SDS_P1;SDS_P2;PMS_P1;PMS_P2;Temp;Humidity;BMP_temperature;BMP_pressure;BME280_temperature;BME280_humidity;BME280_pressure;Samples;Min_cycle;Max_cycle;Signal;HPM_P1;HPM_P2
2023/09/03 00:02:06;;;;;;;1.90;1.20;;;20.60;99.90;;;;;;4993568;28;20102;-39
2023/09/03 00:04:32;;;;;;;3.10;1.50;;;20.60;99.90;;;;;;4993423;28;20019;-44
2023/09/03 00:06:57;;;;;;;2.03;1.17;;;20.60;99.90;;;;;;4993969;28;20081;-40
2023/09/03 00:09:23;;;;;;;1.80;1.20;;;20.50;99.90;;;;;;4993082;28;20027;-39
2023/09/03 00:11:48;;;;;;;4.10;1.30;;;20.50;99.90;;;;;;4993374;28;20476;-40
2023/09/03 00:14:14;;;;;;;1.40;1.13;;;20.60;99.90;;;;;;4993116;28;20101;-40
2023/09/03 00:16:39;;;;;;;1.63;1.00;;;20.60;99.90;;;;;;4993085;28;20074;-40
2023/09/03 00:19:05;;;;;;;2.97;1.05;;;20.50;99.90;;;;;;4992918;28;20534;-40
2023/09/03 00:21:31;;;;;;;1.83;1.30;;;20.50;99.90;;;;;;4993188;28;20027;-39
2023/09/03 00:23:56;;;;;;;2.17;1.27;;;20.50;99.90;;;;;;4993001;28;20014;-40
2023/09/03 00:26:26;;;;;;;1.33;1.10;;;20.50;99.90;;;;;;4993148;28;20022;-42
2023/09/03 00:28:52;;;;;;;4.68;1.20;;;20.60;99.90;;;;;;4992862;28;20019;-41
2023/09/03 00:31:17;;;;;;;2.42;1.17;;;20.50;99.90;;;;;;4992938;28;20140;-40
2023/09/03 00:33:43;;;;;;;3.20;1.20;;;20.50;99.90;;;;;;4992957;28;20400;-37
2023/09/03 00:36:09;;;;;;;1.75;1.40;;;20.50;99.90;;;;;;4993421;28;20463;-42
2023/09/03 00:38:35;;;;;;;2.83;1.20;;;20.50;99.90;;;;;;4992754;28;20029;-40
2023/09/03 00:41:04;;;;;;;1.58;1.17;;;20.50;99.90;;;;;;4992580;28;20030;-40
2023/09/03 00:43:31;;;;;;;2.38;1.40;;;20.50;99.90;;;;;;4992602;28;20030;-38
2023/09/03 00:45:58;;;;;;;1.48;1.30;;;20.50;99.90;;;;;;4992888;28;20104;-42
2023/09/03 00:48:28;;;;;;;3.97;1.55;;;20.50;99.90;;;;;;4992668;28;20026;-41
2023/09/03 00:50:55;;;;;;;1.80;1.27;;;20.50;99.90;;;;;;4992398;28;20030;-37
2023/09/03 00:53:21;;;;;;;3.00;1.30;;;20.50;99.90;;;;;;4992495;28;20032;-40
2023/09/03 00:55:47;;;;;;;3.88;1.27;;;20.50;99.90;;;;;;4992565;28;20495;-40
2023/09/03 00:58:13;;;;;;;3.38;1.75;;;20.50;99.90;;;;;;4992533;28;20026;-36
2023/09/03 01:00:39;;;;;;;1.83;1.30;;;20.50;99.90;;;;;;4992128;28;20125;-35
2023/09/03 01:03:05;;;;;;;2.80;1.27;;;20.50;99.90;;;;;;4992399;28;20105;-38
2023/09/03 01:05:31;;;;;;;1.73;1.20;;;20.50;99.90;;;;;;4992290;28;20022;-37
2023/09/03 01:07:58;;;;;;;3.17;1.33;;;20.50;99.90;;;;;;4992392;28;20395;-35
2023/09/03 01:11:06;;;;;;;3.97;1.35;;;20.50;99.90;;;;;;4974675;28;20058;-35
2023/09/03 01:14:05;;;;;;;3.10;1.17;;;20.50;99.90;;;;;;4992219;28;20037;-36
2023/09/03 01:16:35;;;;;;;2.65;1.20;;;20.50;99.90;;;;;;4990993;28;20479;-34
2023/09/03 01:19:08;;;;;;;2.28;1.30;;;20.50;99.90;;;;;;4992000;28;20023;-34
2023/09/03 01:22:28;;;;;;;1.77;1.25;;;20.50;99.90;;;;;;4992234;28;20546;-35
2023/09/03 01:25:09;;;;;;;2.67;1.42;;;20.50;99.90;;;;;;4953008;28;20046;-36
2023/09/03 01:27:47;;;;;;;2.10;1.27;;;20.50;99.90;;;;;;4991493;28;20077;-35
2023/09/03 01:30:15;;;;;;;2.35;1.20;;;20.50;99.90;;;;;;4991948;28;20026;-34
2023/09/03 01:32:42;;;;;;;2.55;1.30;;;20.50;99.90;;;;;;4991974;28;20023;-35
2023/09/03 01:35:09;;;;;;;3.40;1.38;;;20.50;99.90;;;;;;4991973;28;20117;-37
2023/09/03 01:37:35;;;;;;;2.75;1.13;;;20.50;99.90;;;;;;4992036;28;20030;-35
2023/09/03 01:40:01;;;;;;;2.63;1.55;;;20.50;99.90;;;;;;4991958;28;20033;-35
2023/09/03 01:42:26;;;;;;;1.98;1.35;;;20.50;99.90;;;;;;4991955;28;20030;-36
2023/09/03 01:44:52;;;;;;;6.18;1.45;;;20.50;99.90;;;;;;4991703;28;20039;-38
2023/09/03 01:47:38;;;;;;;2.65;1.27;;;20.50;99.90;;;;;;4991823;28;20034;-37
2023/09/03 01:50:21;;;;;;;3.50;1.50;;;20.50;99.90;;;;;;4991735;28;20022;-37
2023/09/03 01:53:02;;;;;;;2.33;1.40;;;20.50;99.90;;;;;;4992294;28;20083;-37
2023/09/03 01:55:33;;;;;;;1.77;1.25;;;20.50;99.90;;;;;;4991729;28;20489;-37
2023/09/03 01:58:03;;;;;;;2.72;1.35;;;20.40;99.90;;;;;;4991885;28;20038;-37
2023/09/03 02:00:29;;;;;;;2.15;1.20;;;20.50;99.90;;;;;;4991533;28;20033;-37
2023/09/03 02:02:56;;;;;;;2.15;1.20;;;20.40;99.90;;;;;;4991826;28;20064;-38
2023/09/03 02:05:22;;;;;;;1.65;1.33;;;20.40;99.90;;;;;;4991988;28;20026;-37
2023/09/03 02:07:47;;;;;;;1.52;1.08;;;20.40;99.90;;;;;;4991834;28;20498;-38
2023/09/03 02:10:13;;;;;;;5.00;1.25;;;20.40;99.90;;;;;;4991442;28;20065;-37
2023/09/03 02:12:39;;;;;;;2.58;1.40;;;20.50;99.90;;;;;;4991774;28;20379;-37
2023/09/03 02:15:05;;;;;;;2.85;1.40;;;20.40;99.90;;;;;;4991655;28;20483;-37
2023/09/03 02:17:31;;;;;;;3.47;1.30;;;20.40;99.90;;;;;;4991584;28;20423;-37
2023/09/03 02:19:57;;;;;;;2.08;1.20;;;20.40;99.90;;;;;;4991935;28;20027;-37
2023/09/03 02:22:22;;;;;;;1.88;1.40;;;20.40;99.90;;;;;;4991622;28;20018;-37
2023/09/03 02:24:50;;;;;;;2.17;1.40;;;20.40;99.90;;;;;;4991413;28;20365;-38
2023/09/03 02:27:16;;;;;;;2.25;1.45;;;20.40;99.90;;;;;;4991547;28;20085;-38
2023/09/03 02:29:41;;;;;;;1.92;1.20;;;20.40;99.90;;;;;;4991312;28;20038;-37
2023/09/03 02:32:07;;;;;;;2.03;1.35;;;20.40;99.90;;;;;;4991526;28;20029;-38
2023/09/03 02:34:36;;;;;;;1.83;1.30;;;20.40;99.90;;;;;;4991387;28;20041;-37
2023/09/03 02:37:02;;;;;;;1.67;1.17;;;20.40;99.90;;;;;;4974051;28;20468;-37
2023/09/03 02:39:28;;;;;;;2.25;1.35;;;20.40;99.90;;;;;;4994221;28;20030;-37
2023/09/03 02:41:54;;;;;;;4.35;1.42;;;20.40;99.90;;;;;;4994988;28;20097;-38
2023/09/03 02:44:19;;;;;;;2.33;1.25;;;20.40;99.90;;;;;;4994934;28;20073;-37
2023/09/03 02:46:45;;;;;;;4.60;1.08;;;20.40;99.90;;;;;;4994946;28;20084;-38
2023/09/03 02:49:11;;;;;;;3.20;1.35;;;20.40;99.90;;;;;;4994756;28;20029;-37
2023/09/03 02:51:39;;;;;;;2.42;1.10;;;20.40;99.90;;;;;;4994967;28;20063;-37
2023/09/03 02:54:05;;;;;;;3.03;1.25;;;20.40;99.90;;;;;;4994692;28;20034;-38
2023/09/03 02:56:31;;;;;;;3.55;1.25;;;20.40;99.90;;;;;;4994788;28;20026;-37
2023/09/03 02:58:56;;;;;;;1.80;1.23;;;20.40;99.90;;;;;;4994576;28;20490;-37
2023/09/03 03:01:22;;;;;;;1.42;1.20;;;20.40;99.90;;;;;;4994757;28;20041;-38
2023/09/03 03:03:48;;;;;;;2.83;1.35;;;20.40;99.90;;;;;;4994603;28;20023;-37
2023/09/03 03:06:14;;;;;;;4.35;1.40;;;20.40;99.90;;;;;;4994561;28;20030;-38
2023/09/03 03:08:41;;;;;;;3.00;1.40;;;20.40;99.90;;;;;;4994591;28;20033;-38
2023/09/03 03:11:15;;;;;;;4.70;1.30;;;20.40;99.90;;;;;;4994638;28;20034;-38
2023/09/03 03:13:47;;;;;;;;;;;20.40;99.90;;;;;;4994959;28;20026;-37
2023/09/03 03:16:14;;;;;;;3.58;1.05;;;20.40;99.90;;;;;;4994516;28;19909;-37
2023/09/03 03:18:45;;;;;;;1.70;1.23;;;20.40;99.90;;;;;;4994371;28;20559;-38
2023/09/03 03:21:22;;;;;;;1.90;1.30;;;20.40;99.90;;;;;;4994162;28;20030;-38
2023/09/03 03:23:50;;;;;;;2.80;1.23;;;20.40;99.90;;;;;;4994288;28;20026;-37
2023/09/03 03:26:16;;;;;;;1.95;1.00;;;20.40;99.90;;;;;;4994307;28;20211;-37
2023/09/03 03:28:42;;;;;;;2.50;1.55;;;20.40;99.90;;;;;;4994162;28;20022;-37
2023/09/03 03:31:19;;;;;;;2.65;1.35;;;20.40;99.90;;;;;;4994067;28;20113;-37
2023/09/03 03:33:45;;;;;;;1.50;1.25;;;20.30;99.90;;;;;;4994026;28;20030;-37
2023/09/03 03:36:16;;;;;;;2.45;1.30;;;20.40;99.90;;;;;;4994073;28;20113;-37
2023/09/03 03:38:42;;;;;;;3.65;1.33;;;20.30;99.90;;;;;;4994111;28;20030;-38
2023/09/03 03:41:14;;;;;;;2.80;1.10;;;20.30;99.90;;;;;;4993809;28;20030;-37
2023/09/03 03:43:41;;;;;;;1.33;1.20;;;20.40;99.90;;;;;;4994279;28;20034;-38
2023/09/03 03:46:08;;;;;;;2.40;1.17;;;20.30;99.90;;;;;;4993814;28;20509;-38
2023/09/03 03:48:34;;;;;;;4.55;1.17;;;20.30;99.90;;;;;;4993806;28;20092;-41
2023/09/03 03:51:00;;;;;;;1.60;1.30;;;20.30;99.90;;;;;;4993013;28;20070;-39
2023/09/03 03:53:26;;;;;;;3.50;1.15;;;20.30;99.90;;;;;;4993675;28;20040;-39
2023/09/03 03:55:58;;;;;;;3.05;1.23;;;20.30;99.90;;;;;;4993617;28;20026;-38
2023/09/03 03:58:25;;;;;;;3.13;1.10;;;20.30;99.90;;;;;;4993910;28;20357;-40
2023/09/03 04:00:51;;;;;;;3.55;1.25;;;20.30;99.90;;;;;;4993371;28;20117;-39
2023/09/03 04:03:16;;;;;;;3.38;1.17;;;20.30;99.90;;;;;;4993439;28;20476;-40
2023/09/03 04:05:42;;;;;;;2.25;1.30;;;20.30;99.90;;;;;;4993512;28;20025;-39
2023/09/03 04:08:08;;;;;;;3.10;1.10;;;20.30;99.90;;;;;;4993486;28;20034;-40
2023/09/03 04:10:33;;;;;;;1.92;1.10;;;20.30;99.90;;;;;;4993165;28;20023;-40
2023/09/03 04:12:59;;;;;;;2.67;1.20;;;20.30;99.90;;;;;;4975957;28;20030;-40
2023/09/03 04:15:24;;;;;;;1.48;1.15;;;20.30;99.90;;;;;;4993248;28;20495;-39
2023/09/03 04:17:50;;;;;;;2.25;1.30;;;20.30;99.90;;;;;;4993305;28;20109;-41
2023/09/03 04:20:16;;;;;;;1.38;1.17;;;20.30;99.90;;;;;;4992966;28;20041;-41
2023/09/03 04:22:41;;;;;;;3.20;1.20;;;20.30;99.90;;;;;;4993192;28;20365;-40
2023/09/03 04:25:07;;;;;;;2.25;1.38;;;20.30;99.90;;;;;;4993057;28;20023;-41
2023/09/03 04:27:33;;;;;;;3.40;1.10;;;20.30;99.90;;;;;;4993034;28;20507;-37
2023/09/03 04:29:58;;;;;;;1.88;1.00;;;20.30;99.90;;;;;;4992857;28;20033;-40
2023/09/03 04:32:24;;;;;;;1.17;0.90;;;20.20;99.90;;;;;;4993059;28;20415;-40
2023/09/03 04:34:51;;;;;;;1.60;1.00;;;20.30;99.90;;;;;;4993041;28;20062;-40
2023/09/03 04:37:17;;;;;;;2.10;1.20;;;20.30;99.90;;;;;;4993066;28;20049;-40
2023/09/03 04:39:42;;;;;;;2.30;1.20;;;20.30;99.90;;;;;;4992607;28;20034;-38
2023/09/03 04:42:08;;;;;;;3.38;1.30;;;20.30;99.90;;;;;;4992786;28;20431;-41
2023/09/03 04:44:37;;;;;;;1.63;1.20;;;20.30;99.90;;;;;;4992646;28;20065;-38
2023/09/03 04:47:05;;;;;;;3.67;1.42;;;20.20;99.90;;;;;;4992680;28;20507;-40
2023/09/03 04:49:31;;;;;;;3.00;1.30;;;20.30;99.90;;;;;;4992469;28;20038;-41
2023/09/03 04:51:57;;;;;;;2.00;1.40;;;20.30;99.90;;;;;;4992678;28;20026;-41
2023/09/03 04:54:22;;;;;;;3.92;1.27;;;20.30;99.90;;;;;;4992537;28;20049;-41
2023/09/03 04:56:48;;;;;;;2.28;1.20;;;20.20;99.90;;;;;;4992490;28;20604;-41
2023/09/03 04:59:13;;;;;;;1.30;1.08;;;20.30;99.90;;;;;;4992284;28;20117;-38
2023/09/03 05:01:41;;;;;;;2.70;1.23;;;20.30;99.90;;;;;;4991613;28;20441;-40
2023/09/03 05:04:06;;;;;;;3.35;1.30;;;20.30;99.90;;;;;;4992371;28;20023;-38
2023/09/03 05:06:32;;;;;;;2.10;1.23;;;20.30;99.90;;;;;;4992431;28;20027;-43
2023/09/03 05:08:58;;;;;;;3.20;1.30;;;20.20;99.90;;;;;;4992187;28;20109;-40
2023/09/03 05:11:23;;;;;;;3.13;1.17;;;20.20;99.90;;;;;;4992238;28;20026;-40
2023/09/03 05:13:49;;;;;;;1.20;0.98;;;20.20;99.90;;;;;;4992263;28;20084;-39
2023/09/03 05:16:14;;;;;;;2.95;1.60;;;20.20;99.90;;;;;;4992335;28;20113;-39
2023/09/03 05:18:40;;;;;;;2.90;1.35;;;20.20;99.90;;;;;;4992241;28;20064;-40
2023/09/03 05:21:10;;;;;;;1.42;1.10;;;20.30;99.90;;;;;;4991931;28;20034;-39
2023/09/03 05:23:36;;;;;;;2.95;1.10;;;20.30;99.90;;;;;;4992035;28;20049;-38
2023/09/03 05:26:02;;;;;;;2.50;1.25;;;20.30;99.90;;;;;;4992062;28;20073;-40
2023/09/03 05:28:28;;;;;;;4.68;1.30;;;20.20;99.90;;;;;;4992069;28;20026;-39
2023/09/03 05:30:54;;;;;;;2.67;1.20;;;20.30;99.90;;;;;;4991885;28;20384;-40
2023/09/03 05:33:20;;;;;;;6.40;1.15;;;20.20;99.90;;;;;;4991981;28;20033;-38
2023/09/03 05:35:45;;;;;;;2.85;1.00;;;20.20;99.90;;;;;;4992048;28;20113;-40
2023/09/03 05:38:11;;;;;;;1.30;1.10;;;20.30;99.90;;;;;;4991951;28;20042;-40
2023/09/03 05:40:37;;;;;;;2.53;1.20;;;20.20;99.90;;;;;;4974173;28;20031;-40
2023/09/03 05:43:02;;;;;;;2.08;1.00;;;20.30;99.90;;;;;;4991976;28;20033;-40
2023/09/03 05:45:28;;;;;;;1.42;1.05;;;20.30;99.90;;;;;;4991813;28;20484;-37
2023/09/03 05:47:54;;;;;;;1.98;1.02;;;20.20;99.90;;;;;;4991942;28;20019;-40
2023/09/03 05:50:19;;;;;;;1.52;1.30;;;20.30;99.90;;;;;;4991764;28;20038;-40
2023/09/03 05:52:45;;;;;;;3.85;1.50;;;20.20;99.90;;;;;;4991813;28;20066;-37
2023/09/03 05:55:10;;;;;;;1.75;1.08;;;20.20;99.90;;;;;;4991688;28;20022;-37
2023/09/03 05:57:36;;;;;;;1.50;1.20;;;20.20;99.90;;;;;;4991836;28;20058;-40
2023/09/03 06:00:03;;;;;;;2.53;1.55;;;20.20;99.90;;;;;;4991663;28;20446;-40
2023/09/03 06:02:28;;;;;;;1.60;1.30;;;20.30;99.90;;;;;;4991819;28;20105;-40
2023/09/03 06:04:54;;;;;;;3.25;1.20;;;20.30;99.90;;;;;;4991743;28;20097;-40
2023/09/03 06:07:20;;;;;;;1.77;1.23;;;20.20;99.90;;;;;;4991700;28;20073;-39
2023/09/03 06:09:45;;;;;;;1.98;1.30;;;20.20;99.90;;;;;;4991383;28;20030;-39
2023/09/03 06:12:11;;;;;;;3.15;1.15;;;20.20;99.90;;;;;;4991653;28;20030;-40
2023/09/03 06:14:37;;;;;;;1.70;1.23;;;20.20;99.90;;;;;;4995160;28;20050;-40
2023/09/03 06:17:04;;;;;;;1.60;1.13;;;20.30;99.90;;;;;;4995579;28;20093;-40
2023/09/03 06:19:30;;;;;;;1.67;1.20;;;20.20;99.90;;;;;;4995196;28;20077;-38
2023/09/03 06:21:55;;;;;;;2.17;1.15;;;20.20;99.90;;;;;;4995435;28;20090;-37
2023/09/03 06:24:21;;;;;;;2.13;1.50;;;20.20;99.90;;;;;;4995198;28;20550;-40
2023/09/03 06:26:47;;;;;;;1.50;1.10;;;20.30;99.90;;;;;;4995360;28;20026;-40
2023/09/03 06:29:12;;;;;;;1.40;1.20;;;20.20;99.90;;;;;;4995078;28;20052;-40
2023/09/03 06:31:38;;;;;;;1.83;1.10;;;20.20;99.90;;;;;;4995277;28;20023;-39
2023/09/03 06:34:04;;;;;;;2.22;1.00;;;20.30;99.90;;;;;;4995164;28;20407;-40
2023/09/03 06:36:30;;;;;;;1.25;1.05;;;20.20;99.90;;;;;;4995560;28;20026;-40
2023/09/03 06:38:55;;;;;;;1.10;0.90;;;20.30;99.90;;;;;;4994828;28;20026;-40
2023/09/03 06:41:21;;;;;;;1.67;1.15;;;20.20;99.90;;;;;;4994938;28;20026;-40
2023/09/03 06:43:47;;;;;;;0.93;0.82;;;20.30;99.90;;;;;;4994789;28;20035;-39
2023/09/03 06:46:12;;;;;;;1.90;1.05;;;20.30;99.90;;;;;;4994980;28;20033;-39
2023/09/03 06:48:38;;;;;;;1.27;0.93;;;20.30;99.90;;;;;;4994921;28;20023;-40
2023/09/03 06:51:04;;;;;;;1.60;1.20;;;20.30;99.90;;;;;;4994788;28;20030;-41
2023/09/03 06:53:30;;;;;;;1.60;1.30;;;20.30;99.90;;;;;;4994674;28;20105;-40
2023/09/03 06:55:59;;;;;;;2.08;1.00;;;20.30;99.90;;;;;;4995074;28;20443;-40
2023/09/03 06:58:24;;;;;;;1.58;1.17;;;20.30;99.90;;;;;;4994891;28;20106;-40
2023/09/03 07:00:50;;;;;;;2.58;1.02;;;20.30;99.90;;;;;;4994715;28;20457;-40
2023/09/03 07:03:16;;;;;;;1.80;1.13;;;20.30;99.90;;;;;;4994697;28;20411;-40
2023/09/03 07:05:41;;;;;;;2.72;1.40;;;20.30;99.90;;;;;;4994675;28;20030;-40
2023/09/03 07:08:07;;;;;;;1.63;1.42;;;20.30;99.90;;;;;;4994545;28;20029;-40
2023/09/03 07:10:33;;;;;;;1.20;1.00;;;20.30;99.90;;;;;;4994392;28;20057;-41
2023/09/03 07:12:59;;;;;;;1.50;1.10;;;20.30;99.90;;;;;;4994724;28;20058;-40
2023/09/03 07:15:26;;;;;;;1.17;0.80;;;20.30;99.90;;;;;;4994399;28;20022;-40
2023/09/03 07:17:51;;;;;;;1.33;1.00;;;20.30;99.90;;;;;;4994568;28;20038;-39
2023/09/03 07:20:17;;;;;;;1.67;0.82;;;20.30;99.90;;;;;;4994164;28;20530;-40
2023/09/03 07:22:43;;;;;;;2.92;0.90;;;20.30;99.90;;;;;;4994208;28;20034;-43
2023/09/03 07:25:09;;;;;;;1.20;1.00;;;20.30;99.90;;;;;;4993229;28;20022;-40
2023/09/03 07:27:38;;;;;;;1.40;0.90;;;20.30;99.90;;;;;;4994470;28;20022;-40
2023/09/03 07:30:08;;;;;;;1.40;1.10;;;20.30;99.90;;;;;;4994071;28;20030;-40
2023/09/03 07:32:34;;;;;;;1.40;0.88;;;20.30;99.90;;;;;;4976735;28;20096;-40
2023/09/03 07:35:00;;;;;;;1.38;1.20;;;20.30;99.90;;;;;;4976529;28;20033;-40
2023/09/03 07:37:26;;;;;;;1.25;0.90;;;20.30;99.90;;;;;;4993975;28;20026;-40
2023/09/03 07:39:51;;;;;;;1.10;1.00;;;20.30;99.90;;;;;;4976268;28;20037;-40
2023/09/03 07:42:17;;;;;;;1.23;1.00;;;20.30;99.90;;;;;;4994015;28;20186;-39
2023/09/03 07:44:43;;;;;;;1.40;0.90;;;20.30;99.90;;;;;;4993746;28;20493;-40
2023/09/03 07:47:08;;;;;;;1.80;1.10;;;20.30;99.90;;;;;;4993919;28;20104;-40
2023/09/03 07:49:34;;;;;;;1.33;0.88;;;20.30;99.90;;;;;;4993500;28;20101;-39
2023/09/03 07:51:59;;;;;;;1.20;1.10;;;20.30;99.90;;;;;;4976503;28;20034;-37
2023/09/03 07:54:25;;;;;;;2.55;0.95;;;20.30;99.90;;;;;;4993703;28;20037;-40
2023/09/03 07:56:54;;;;;;;1.73;0.90;;;20.40;99.90;;;;;;4993745;28;20041;-40
2023/09/03 07:59:20;;;;;;;1.27;1.02;;;20.30;99.90;;;;;;4993610;28;20447;-38
2023/09/03 08:01:46;;;;;;;1.50;1.00;;;20.30;99.90;;;;;;4993592;28;20153;-38
2023/09/03 08:04:12;;;;;;;1.08;0.90;;;20.40;99.90;;;;;;4993366;28;20025;-40
2023/09/03 08:06:37;;;;;;;1.17;0.90;;;20.30;99.90;;;;;;4993418;28;20030;-40
2023/09/03 08:09:03;;;;;;;1.48;1.00;;;20.40;99.90;;;;;;4993450;28;20030;-40
2023/09/03 08:11:29;;;;;;;1.05;0.95;;;20.40;99.90;;;;;;4993541;28;20038;-39
2023/09/03 08:13:59;;;;;;;1.50;1.10;;;20.30;99.90;;;;;;4993131;28;20097;-39
2023/09/03 08:16:25;;;;;;;1.33;0.88;;;20.40;99.90;;;;;;4993328;28;20030;-40
2023/09/03 08:18:51;;;;;;;1.10;0.98;;;20.40;99.90;;;;;;4993015;28;20481;-37
2023/09/03 08:21:16;;;;;;;1.13;0.90;;;20.40;99.90;;;;;;4993305;28;20089;-40
2023/09/03 08:23:42;;;;;;;2.55;1.20;;;20.40;99.90;;;;;;4993167;28;20019;-40
2023/09/03 08:26:08;;;;;;;2.00;0.85;;;20.40;99.90;;;;;;4993140;28;20038;-40
2023/09/03 08:28:33;;;;;;;3.40;1.10;;;20.40;99.90;;;;;;4993124;28;20023;-40
2023/09/03 08:30:59;;;;;;;1.20;0.90;;;20.40;99.90;;;;;;4992870;28;20239;-40
2023/09/03 08:33:25;;;;;;;2.20;1.10;;;20.40;99.90;;;;;;4992848;28;20447;-39
2023/09/03 08:35:50;;;;;;;0.95;0.80;;;20.40;99.90;;;;;;4992821;28;20041;-40
2023/09/03 08:38:16;;;;;;;2.85;1.00;;;20.40;99.90;;;;;;4993000;28;20022;-40
2023/09/03 08:40:43;;;;;;;1.10;1.00;;;20.40;99.90;;;;;;4992576;28;20039;-40
2023/09/03 08:43:10;;;;;;;1.38;0.85;;;20.40;99.90;;;;;;4992920;28;20046;-40
2023/09/03 08:45:43;;;;;;;1.58;0.88;;;20.40;99.90;;;;;;4992669;28;20475;-38
2023/09/03 08:48:10;;;;;;;1.10;0.90;;;20.40;99.90;;;;;;4992645;28;20542;-40
2023/09/03 08:50:36;;;;;;;1.50;1.00;;;20.40;99.90;;;;;;4992469;28;20069;-38
2023/09/03 08:53:02;;;;;;;1.38;0.80;;;20.40;99.90;;;;;;4992669;28;20487;-42
2023/09/03 08:55:29;;;;;;;1.17;0.90;;;20.50;99.90;;;;;;4992611;28;20026;-38
2023/09/03 08:57:56;;;;;;;1.00;0.82;;;20.50;99.90;;;;;;4992590;28;20038;-40
2023/09/03 09:00:22;;;;;;;2.90;1.08;;;20.50;99.90;;;;;;4992290;28;20072;-39
2023/09/03 09:02:48;;;;;;;1.55;1.00;;;20.50;99.90;;;;;;4992924;28;20470;-40
2023/09/03 09:05:15;;;;;;;1.20;1.10;;;20.50;99.90;;;;;;4992383;28;20138;-41
2023/09/03 09:07:41;;;;;;;2.22;1.38;;;20.50;99.90;;;;;;4992435;28;20510;-42
2023/09/03 09:10:10;;;;;;;1.92;1.42;;;20.60;99.90;;;;;;4992251;28;20112;-39
2023/09/03 09:12:51;;;;;;;2.25;1.20;;;20.60;99.90;;;;;;4992425;28;20410;-40
2023/09/03 09:15:17;;;;;;;1.75;1.30;;;20.70;99.90;;;;;;4992204;28;20073;-41
2023/09/03 09:17:44;;;;;;;2.05;1.42;;;20.70;99.90;;;;;;4992312;28;20518;-41
2023/09/03 09:20:17;;;;;;;5.85;1.30;;;20.80;99.90;;;;;;4991904;28;20037;-42
2023/09/03 09:22:45;;;;;;;2.00;1.17;;;20.80;99.90;;;;;;4974752;28;20037;-40
2023/09/03 09:25:25;;;;;;;2.50;1.20;;;20.80;99.90;;;;;;4992134;28;20034;-41
2023/09/03 09:27:55;;;;;;;2.55;1.23;;;20.80;99.90;;;;;;4992032;28;20028;-44
2023/09/03 09:30:24;;;;;;;1.63;1.15;;;20.90;99.90;;;;;;4991908;28;20479;-42
2023/09/03 09:33:06;;;;;;;2.33;1.33;;;20.90;99.90;;;;;;4992015;28;20038;-43
2023/09/03 09:35:32;;;;;;;2.95;1.20;;;20.90;99.90;;;;;;4992063;28;20037;-45
2023/09/03 09:38:05;;;;;;;1.63;1.25;;;21.00;99.90;;;;;;4992014;28;20030;-42
2023/09/03 09:40:31;;;;;;;1.33;1.00;;;20.90;99.90;;;;;;4991850;28;20030;-42
2023/09/03 09:43:01;;;;;;;2.03;1.23;;;21.00;99.90;;;;;;4992155;28;20379;-42
2023/09/03 09:45:27;;;;;;;1.20;0.90;;;21.00;99.90;;;;;;5029090;23;20064;-37
2023/09/03 09:48:09;;;;;;;3.47;1.15;;;21.00;99.90;;;;;;5013642;28;20025;-37
2023/09/03 09:50:53;;;;;;;1.75;1.25;;;21.00;99.90;;;;;;5017966;28;20136;-40
2023/09/03 09:53:21;;;;;;;;;;;21.00;99.90;;;;;;5018747;28;20033;-36
2023/09/03 09:55:46;;;;;;;2.47;1.13;;;21.10;99.90;;;;;;5018087;28;19963;-41
2023/09/03 09:58:12;;;;;;;1.33;1.08;;;21.10;99.90;;;;;;5018140;28;20030;-36
2023/09/03 10:00:43;;;;;;;2.08;1.00;;;21.10;99.90;;;;;;5017661;28;20077;-36
2023/09/03 10:03:12;;;;;;;1.80;0.98;;;21.10;99.90;;;;;;5018000;28;20029;-38
2023/09/03 10:05:47;;;;;;;1.23;0.95;;;21.10;99.90;;;;;;5017902;28;20498;-35
2023/09/03 10:08:13;;;;;;;1.50;1.10;;;21.10;99.90;;;;;;5017984;28;20514;-40
2023/09/03 10:10:39;;;;;;;1.75;1.10;;;21.10;99.90;;;;;;5017688;28;20062;-38
2023/09/03 10:13:06;;;;;;;1.40;0.80;;;21.10;99.90;;;;;;5017786;28;20101;-40
2023/09/03 10:15:32;;;;;;;1.55;1.00;;;21.10;99.90;;;;;;5017844;28;20032;-38
2023/09/03 10:18:02;;;;;;;1.95;1.17;;;21.20;99.90;;;;;;5017806;28;20025;-37
2023/09/03 10:20:28;;;;;;;1.13;0.88;;;21.10;99.90;;;;;;5016219;28;20471;-38
2023/09/03 10:23:01;;;;;;;1.88;1.00;;;21.20;99.90;;;;;;5017819;28;20018;-36
2023/09/03 10:25:29;;;;;;;1.85;1.20;;;21.20;99.90;;;;;;5018155;28;20026;-37
2023/09/03 10:28:03;;;;;;;1.10;1.00;;;21.20;99.90;;;;;;5016464;28;20108;-37
2023/09/03 10:30:37;;;;;;;1.00;0.75;;;21.20;99.90;;;;;;5017563;28;20062;-39
2023/09/03 10:33:06;;;;;;;1.45;1.08;;;21.20;99.90;;;;;;5017714;28;20399;-41
2023/09/03 10:35:31;;;;;;;2.60;1.00;;;21.20;99.90;;;;;;5017622;28;20121;-37
2023/09/03 10:37:57;;;;;;;1.33;0.82;;;21.20;99.90;;;;;;5017653;28;20104;-36
2023/09/03 10:40:30;;;;;;;1.60;0.80;;;21.20;99.90;;;;;;5017323;28;20030;-37
2023/09/03 10:43:14;;;;;;;1.02;0.80;;;21.20;99.90;;;;;;5018014;28;20041;-38
2023/09/03 10:46:05;;;;;;;1.35;0.80;;;21.20;99.90;;;;;;5017442;28;20078;-40
2023/09/03 10:48:30;;;;;;;1.20;0.80;;;21.20;99.90;;;;;;5017577;28;20516;-44
2023/09/03 10:50:56;;;;;;;0.80;0.70;;;21.20;99.90;;;;;;5017422;28;20053;-36
2023/09/03 10:53:42;;;;;;;2.15;0.98;;;21.20;99.90;;;;;;5017542;28;20026;-38
2023/09/03 10:56:18;;;;;;;2.25;0.90;;;21.20;99.90;;;;;;5017628;28;20030;-37
2023/09/03 10:58:57;;;;;;;1.08;0.98;;;21.20;99.90;;;;;;5016981;28;20025;-38
2023/09/03 11:01:30;;;;;;;1.42;0.90;;;21.20;99.90;;;;;;5014536;28;20321;-39
2023/09/03 11:03:57;;;;;;;1.98;0.95;;;21.30;99.90;;;;;;5014537;28;20113;-39
2023/09/03 11:06:24;;;;;;;1.85;0.73;;;21.30;99.90;;;;;;5014641;28;20515;-36
2023/09/03 11:08:59;;;;;;;0.95;0.77;;;21.30;99.90;;;;;;5014156;28;20152;-39
2023/09/03 11:11:30;;;;;;;1.10;0.80;;;21.30;99.90;;;;;;5014173;28;20108;-40
2023/09/03 11:13:56;;;;;;;1.23;0.90;;;21.30;99.90;;;;;;5014141;28;20026;-38
2023/09/03 11:16:42;;;;;;;1.02;0.73;;;21.30;99.90;;;;;;5014073;28;20038;-38
2023/09/03 11:19:08;;;;;;;1.08;0.75;;;21.30;99.90;;;;;;5013904;28;20045;-44
2023/09/03 11:21:35;;;;;;;0.93;0.80;;;21.30;99.90;;;;;;5013980;28;20062;-38
2023/09/03 11:24:06;;;;;;;1.27;0.90;;;21.30;99.90;;;;;;5013760;28;20029;-37
2023/09/03 11:26:33;;;;;;;1.45;0.90;;;21.30;99.90;;;;;;5014181;28;20033;-39
2023/09/03 11:29:01;;;;;;;0.98;0.70;;;21.30;99.90;;;;;;5013776;28;20168;-42
2023/09/03 11:31:27;;;;;;;1.00;0.88;;;21.30;99.90;;;;;;5013718;28;20029;-39
2023/09/03 11:33:55;;;;;;;0.88;0.80;;;21.30;99.90;;;;;;5013913;28;20030;-38
2023/09/03 11:36:22;;;;;;;1.30;0.60;;;21.40;99.90;;;;;;5015521;28;20034;-38
2023/09/03 11:39:13;;;;;;;1.27;0.82;;;21.30;99.90;;;;;;5014448;28;20030;-36
2023/09/03 11:41:47;;;;;;;0.93;0.70;;;21.30;99.90;;;;;;5013686;28;20566;-37
2023/09/03 11:44:26;;;;;;;10.63;0.80;;;21.40;99.90;;;;;;5013406;28;20430;-38
2023/09/03 11:46:59;;;;;;;1.08;0.70;;;21.40;99.90;;;;;;5013520;28;20033;-39
2023/09/03 11:49:25;;;;;;;1.08;0.90;;;21.40;99.90;;;;;;5013367;28;20021;-40
2023/09/03 11:51:52;;;;;;;1.27;0.70;;;21.40;99.90;;;;;;5013760;28;20043;-34
2023/09/03 11:54:24;;;;;;;2.65;0.70;;;21.40;99.90;;;;;;5013724;28;20451;-35
2023/09/03 11:56:53;;;;;;;1.25;0.50;;;21.50;99.90;;;;;;5013292;28;20479;-34
2023/09/03 11:59:20;;;;;;;1.75;0.73;;;;;;;;;;5012986;28;20024;-34
2023/09/03 12:01:45;;;;;;;1.30;0.80;;;21.90;99.90;;;;;;5013187;28;20034;-34
2023/09/03 12:04:11;;;;;;;3.28;0.80;;;21.90;99.90;;;;;;5013141;28;20096;-34
2023/09/03 12:06:38;;;;;;;2.85;0.63;;;21.90;99.90;;;;;;5013246;28;20434;-34
2023/09/03 12:09:04;;;;;;;1.42;0.63;;;21.90;99.90;;;;;;5012938;28;20046;-34
2023/09/03 12:11:32;;;;;;;1.38;0.80;;;22.00;99.90;;;;;;5012586;28;20060;-34
2023/09/03 12:13:58;;;;;;;1.13;0.77;;;22.00;99.90;;;;;;5012839;28;20395;-34
2023/09/03 12:16:24;;;;;;;4.38;0.90;;;22.10;99.90;;;;;;5013055;28;20029;-34
2023/09/03 12:19:01;;;;;;;2.90;0.60;;;22.10;99.90;;;;;;5012877;28;20026;-34
2023/09/03 12:21:34;;;;;;;1.08;0.70;;;22.10;99.90;;;;;;5012866;28;20025;-37
2023/09/03 12:24:05;;;;;;;2.17;0.70;;;22.10;99.90;;;;;;5012875;28;20060;-34
2023/09/03 12:26:35;;;;;;;1.63;0.70;;;22.10;99.90;;;;;;5012744;28;20032;-37
2023/09/03 12:29:17;;;;;;;1.45;0.80;;;22.10;99.90;;;;;;5012546;28;20026;-37
2023/09/03 12:31:44;;;;;;;2.22;1.00;;;22.10;99.90;;;;;;5012794;28;20026;-34
2023/09/03 12:34:11;;;;;;;1.38;0.80;;;22.10;99.90;;;;;;5012590;28;20026;-36
2023/09/03 12:36:56;;;;;;;1.27;0.95;;;22.00;99.90;;;;;;5012717;28;20116;-34
2023/09/03 12:39:29;;;;;;;1.35;1.05;;;22.00;99.90;;;;;;5012413;28;20064;-34
2023/09/03 12:41:55;;;;;;;1.65;0.70;;;22.00;99.90;;;;;;5012579;28;20113;-34
2023/09/03 12:44:20;;;;;;;0.95;0.80;;;22.00;99.90;;;;;;5012255;28;20109;-34
2023/09/03 12:46:46;;;;;;;1.35;0.70;;;21.90;99.90;;;;;;5012460;28;20026;-34
2023/09/03 12:49:12;;;;;;;1.00;0.60;;;21.90;99.90;;;;;;5012155;28;20054;-37
2023/09/03 12:51:39;;;;;;;1.27;0.70;;;21.90;99.90;;;;;;5012298;28;20109;-34
2023/09/03 12:54:05;;;;;;;0.82;0.63;;;21.90;99.90;;;;;;5012285;28;20034;-37